METAR AND TAF INFORMATION
METAR FOR BKPR
ADDS - METARS form results

(1603 UTC 02 July 2020)
Data provider http://aviationweather.gov/metar/data/
 
METAR text: BKPR 021600Z VRB02KT 9999 FEW035TCU SCT050 32/15 Q1010 NOSIG
Conditions at: BKPR (PRISHTINA , CS) observed 1600 UTC 02 July 2020
Temperature: 32.0°C (90°F)
Dewpoint: 15.0°C (59°F) [RH = 36%]
Pressure (altimeter): 29.82 inches Hg (1010.0 mb)
Winds: variable direction winds at 2 MPH (2 knots; 1.0 m/s)
Visibility: 6 or more miles (10+ km)
Ceiling: at least 12,000 feet AGL
Clouds: few clouds at 3500 feet AGL
scattered clouds at 5000 feet AGL
Weather: no significant weather observed at this time

METAR text: BKPR 021530Z 11004KT 060V180 9999 FEW035TCU SCT050 32/13 Q1010 NOSIG
Conditions at: BKPR (PRISHTINA , CS) observed 1530 UTC 02 July 2020
Temperature: 32.0°C (90°F)
Dewpoint: 13.0°C (55°F) [RH = 32%]
Pressure (altimeter): 29.82 inches Hg (1010.0 mb)
Winds: from the ESE (110 degrees) at 5 MPH (4 knots; 2.1 m/s)
Visibility: 6 or more miles (10+ km)
Ceiling: at least 12,000 feet AGL
Clouds: few clouds at 3500 feet AGL
scattered clouds at 5000 feet AGL
Weather: no significant weather observed at this time

Forecast for: BKPR (PRISHTINA , CS)
Text: TAF BKPR 021130Z 0212/0312 VRB05KT 9999 FEW040
Forecast period: 1200 UTC 02 July 2020 to 1200 UTC 03 July 2020
Forecast type: FROM: standard forecast or significant change
Winds: variable direction winds at 6 MPH (5 knots; 2.6 m/s)
Visibility: 6 or more miles 10+ km)
Ceiling: at least 12,000 feet AGL
Clouds: few clouds at 4000 feet AGL
Weather: no significant weather forecast for this period
Text: PROB40
Forecast period: 1400 to 2000 UTC 02 July 2020
Forecast type: TEMPORARY: The following changes expected for less than half the time period
Winds: variable direction winds at 17 MPH (15 knots; 7.7 m/s)
Visibility: 3 miles (5 km)
Ceiling: at least 12,000 feet AGL
Clouds: few clouds at 3000 feet AGL
Weather: -TSRA  (light rain associated with thunderstorm(s))

 AIRPORT MAP

 RUNWAY INFORMATION
Runway 17 Runway length 8165 ft Runway width 148 ft
Runway elevation 1789 ft Runway displaced threshold 0 ft Runway heading 176
Runway 35 Runway length 8165 ft Runway width 148 ft
Runway elevation 1786 ft Runway displaced threshold 0 ft Runway heading 356

 AIRPORT FREQUENCIES
Type APP Name APP Frequency 118.775 MHZ
Type GND Name GND Frequency 118 MHZ
Type RMP Name RAMP OPR Frequency 136.8 MHZ
Type TWR Name TWR Frequency 120.125 MHZ

 AIRPORT NEAR NAVIGATION AIDS



Powered by Virtual Airlines Manager [v2.6.2]